createdAt,value
2023-05-10T00:01:13.840Z,100452.03
2023-05-10T00:03:41.509Z,100464.44
2023-05-10T00:06:08.773Z,100471.50
2023-05-10T00:08:36.028Z,100479.47
2023-05-10T00:11:03.019Z,100469.78
2023-05-10T00:13:30.225Z,100445.88
2023-05-10T00:15:57.343Z,100483.09
2023-05-10T00:18:24.448Z,100470.84
2023-05-10T00:20:51.635Z,100457.44
2023-05-10T00:23:18.657Z,100469.94
2023-05-10T00:25:45.720Z,100472.50
2023-05-10T00:28:12.801Z,100473.38
2023-05-10T00:30:39.845Z,100467.09
2023-05-10T00:33:07.281Z,100469.63
2023-05-10T00:35:35.074Z,100468.81
2023-05-10T00:38:02.104Z,100480.13
2023-05-10T00:40:29.815Z,100473.97
2023-05-10T00:43:01.684Z,100483.63
2023-05-10T00:45:29.061Z,100480.16
2023-05-10T00:47:58.174Z,100474.94
2023-05-10T00:50:25.651Z,100481.03
2023-05-10T00:52:53.652Z,100436.00
2023-05-10T00:55:21.245Z,100477.56
2023-05-10T00:57:48.584Z,100476.63
2023-05-10T01:00:19.265Z,100469.63
2023-05-10T01:02:47.555Z,100476.63
2023-05-10T01:05:14.838Z,100479.25
2023-05-10T01:07:42.333Z,100477.50
2023-05-10T01:10:12.071Z,100477.47
2023-05-10T01:12:42.283Z,100479.16
2023-05-10T01:15:11.124Z,100480.88
2023-05-10T01:17:41.438Z,100478.13
2023-05-10T01:20:10.496Z,100467.50
2023-05-10T01:22:57.258Z,100471.00
2023-05-10T01:26:16.633Z,100463.09
2023-05-10T01:28:52.685Z,100469.19
2023-05-10T01:31:34.322Z,100449.84
2023-05-10T01:34:22.253Z,100465.75
2023-05-10T01:37:02.292Z,100436.59
2023-05-10T01:39:44.610Z,100466.75
2023-05-10T01:42:15.449Z,100465.94
2023-05-10T01:44:52.417Z,100450.09
2023-05-10T01:47:39.887Z,100456.38
2023-05-10T01:50:16.618Z,100451.97
2023-05-10T01:52:48.240Z,100467.84
2023-05-10T01:55:22.521Z,100443.19
2023-05-10T01:57:59.873Z,100439.69
2023-05-10T02:00:46.954Z,100468.09
2023-05-10T02:03:16.300Z,100462.78
2023-05-10T02:05:46.164Z,100461.03
2023-05-10T02:08:52.270Z,100472.41
2023-05-10T02:11:22.642Z,100454.88
2023-05-10T02:13:52.820Z,100446.84
2023-05-10T02:16:24.821Z,100448.59
2023-05-10T02:18:53.319Z,100444.03
2023-05-10T02:21:22.837Z,100460.88
2023-05-10T02:23:53.149Z,100426.41
2023-05-10T02:26:22.465Z,100460.00
2023-05-10T02:28:50.937Z,100438.88
2023-05-10T02:31:20.024Z,100459.09
2023-05-10T02:33:48.127Z,100460.84
2023-05-10T02:36:17.469Z,100450.31
2023-05-10T02:38:46.683Z,100452.03
2023-05-10T02:41:15.405Z,100459.09
2023-05-10T02:43:44.401Z,100452.19
2023-05-10T02:46:11.670Z,100451.31
2023-05-10T02:48:39.497Z,100459.34
2023-05-10T02:51:08.562Z,100448.88
2023-05-10T02:53:39.639Z,100458.63
2023-05-10T02:56:14.509Z,100453.38
2023-05-10T02:58:41.738Z,100454.19
2023-05-10T03:01:09.252Z,100450.53
2023-05-10T03:03:36.424Z,100453.97
2023-05-10T03:06:05.428Z,100414.97
2023-05-10T03:08:32.636Z,100446.84
2023-05-10T03:11:19.108Z,100443.44
2023-05-10T03:14:28.361Z,100448.00
2023-05-10T03:17:11.319Z,100452.69
2023-05-10T03:19:48.958Z,100445.78
2023-05-10T03:22:41.226Z,100439.75
2023-05-10T03:25:12.653Z,100445.97
2023-05-10T03:27:44.498Z,100445.84
2023-05-10T03:30:13.466Z,100442.25
2023-05-10T03:32:41.226Z,100449.41
2023-05-10T03:35:13.481Z,100432.72
2023-05-10T03:37:40.647Z,100439.84
2023-05-10T03:40:08.821Z,100447.72
2023-05-10T03:42:38.217Z,100447.69
2023-05-10T03:45:05.934Z,100440.56
2023-05-10T03:47:34.102Z,100431.66
2023-05-10T03:50:01.451Z,100447.81
2023-05-10T03:52:33.058Z,100452.34
2023-05-10T03:55:00.228Z,100444.53
2023-05-10T03:57:27.388Z,100436.66
2023-05-10T03:59:54.414Z,100448.22
2023-05-10T04:02:21.401Z,100437.75
2023-05-10T04:04:49.361Z,100430.72
2023-05-10T04:07:16.519Z,100437.69
2023-05-10T04:09:43.757Z,100442.06
2023-05-10T04:12:11.233Z,100403.44
2023-05-10T04:14:38.461Z,100424.94
2023-05-10T04:17:05.687Z,100413.63
2023-05-10T04:19:33.253Z,100438.38
2023-05-10T04:22:00.821Z,100412.84
2023-05-10T04:24:27.845Z,100431.41
2023-05-10T04:26:57.525Z,100428.06
2023-05-10T04:29:24.991Z,100409.69
2023-05-10T04:31:52.101Z,100421.34
2023-05-10T04:34:19.838Z,100414.31
2023-05-10T04:36:46.810Z,100430.13
2023-05-10T04:39:14.902Z,100417.03
2023-05-10T04:41:42.123Z,100402.13
2023-05-10T04:44:09.191Z,100414.59
2023-05-10T04:46:36.439Z,100404.94
2023-05-10T04:49:03.525Z,100412.88
2023-05-10T04:51:30.613Z,100420.09
2023-05-10T04:54:06.243Z,100424.66
2023-05-10T04:56:34.757Z,100416.81
2023-05-10T04:59:01.840Z,100415.13
2023-05-10T05:01:29.200Z,100418.72
2023-05-10T05:03:56.494Z,100413.50
2023-05-10T05:06:23.776Z,100413.59
2023-05-10T05:08:50.817Z,100410.22
2023-05-10T05:11:22.235Z,100415.56
2023-05-10T05:13:49.365Z,100390.91
2023-05-10T05:16:16.463Z,100404.25
2023-05-10T05:18:43.625Z,100409.53
2023-05-10T05:21:18.021Z,100398.97
2023-05-10T05:23:45.746Z,100405.22
2023-05-10T05:26:12.840Z,100399.94
2023-05-10T05:28:40.136Z,100396.44
2023-05-10T05:31:11.051Z,100401.72
2023-05-10T05:33:38.266Z,100398.22
2023-05-10T05:36:06.759Z,100399.06
2023-05-10T05:38:34.091Z,100399.06
2023-05-10T05:41:01.347Z,100392.91
2023-05-10T05:43:28.659Z,100392.84
2023-05-10T05:45:56.109Z,100384.88
2023-05-10T05:48:23.368Z,100392.75
2023-05-10T05:50:50.463Z,100385.63
2023-05-10T05:53:17.429Z,100375.78
2023-05-10T05:55:54.482Z,100372.84
2023-05-10T05:58:22.690Z,100379.72
2023-05-10T06:00:50.471Z,100378.72
2023-05-10T06:03:17.907Z,100362.84
2023-05-10T06:05:45.190Z,100367.19
2023-05-10T06:08:12.211Z,100367.25
2023-05-10T06:10:39.291Z,100372.41
2023-05-10T06:13:06.563Z,100351.09
2023-05-10T06:15:33.879Z,100359.59
2023-05-10T06:18:01.164Z,100364.13
2023-05-10T06:20:28.597Z,100357.88
2023-05-10T06:22:55.925Z,100361.25
2023-05-10T06:25:23.109Z,100370.66
2023-05-10T06:27:53.484Z,100362.31
2023-05-10T06:30:21.366Z,100356.63
2023-05-10T06:32:48.572Z,100361.94
2023-05-10T06:35:15.783Z,100358.69
2023-05-10T06:37:43.055Z,100355.50
2023-05-10T06:40:10.543Z,100358.75
2023-05-10T06:42:37.734Z,100339.91
2023-05-10T06:45:05.284Z,100354.25
2023-05-10T06:47:33.416Z,100347.28
2023-05-10T06:50:00.895Z,100349.50
2023-05-10T06:52:31.448Z,100344.50
2023-05-10T06:54:58.854Z,100343.22
2023-05-10T06:59:57.567Z,100345.81
2023-05-10T07:02:24.601Z,100338.44
2023-05-10T07:04:53.108Z,100340.75
2023-05-10T07:07:20.476Z,100341.47
2023-05-10T07:09:47.723Z,100347.03
2023-05-10T07:12:15.847Z,100335.06
2023-05-10T07:14:43.774Z,100336.41
2023-05-10T07:17:11.116Z,100330.19
2023-05-10T07:19:38.184Z,100334.09
2023-05-10T07:22:05.239Z,100334.91
2023-05-10T07:24:33.289Z,100324.44
2023-05-10T07:27:00.542Z,100337.50
2023-05-10T07:29:27.685Z,100328.47
2023-05-10T07:31:57.103Z,100323.38
2023-05-10T07:34:26.157Z,100322.06
2023-05-10T07:36:53.875Z,100305.97
2023-05-10T07:39:27.637Z,100312.88
2023-05-10T07:41:56.002Z,100304.16
2023-05-10T07:44:23.329Z,100312.16
2023-05-10T07:46:50.590Z,100291.41
2023-05-10T07:49:17.705Z,100303.53
2023-05-10T07:51:44.928Z,100294.78
2023-05-10T07:54:12.064Z,100285.09
2023-05-10T07:56:39.081Z,100304.94
2023-05-10T07:59:08.797Z,100297.44
2023-05-10T08:01:37.103Z,100298.03
2023-05-10T08:04:04.280Z,100308.09
2023-05-10T08:06:31.541Z,100295.19
2023-05-10T08:08:58.735Z,100290.22
2023-05-10T08:11:26.177Z,100283.38
2023-05-10T08:13:53.319Z,100271.13
2023-05-10T08:16:20.905Z,100284.41
2023-05-10T08:18:48.842Z,100279.34
2023-05-10T08:21:16.810Z,100279.00
2023-05-10T08:23:45.213Z,100278.34
2023-05-10T08:26:12.537Z,100275.91
2023-05-10T08:28:39.799Z,100251.72
2023-05-10T08:31:07.497Z,100258.34
2023-05-10T08:33:34.686Z,100267.97
2023-05-10T08:36:01.822Z,100263.03
2023-05-10T08:38:29.078Z,100262.03
2023-05-10T08:41:00.100Z,100271.13
2023-05-10T08:43:31.421Z,100267.44
2023-05-10T08:46:01.775Z,100266.53
2023-05-10T08:48:31.207Z,100269.94
2023-05-10T08:51:01.852Z,100262.25
2023-05-10T08:53:31.622Z,100258.69
2023-05-10T08:55:58.865Z,100274.16
2023-05-10T08:58:26.502Z,100264.81
2023-05-10T09:00:54.676Z,100265.50
2023-05-10T09:03:21.912Z,100242.50
2023-05-10T09:05:50.293Z,100255.66
2023-05-10T09:08:18.557Z,100250.31
2023-05-10T09:10:48.316Z,100252.47
2023-05-10T09:13:16.557Z,100228.25
2023-05-10T09:15:45.214Z,100247.31
2023-05-10T09:18:12.916Z,100243.91
2023-05-10T09:20:39.995Z,100219.94
2023-05-10T09:23:07.859Z,100224.03
2023-05-10T09:25:35.507Z,100236.78
2023-05-10T09:28:03.200Z,100235.19
2023-05-10T09:30:31.752Z,100235.41
2023-05-10T09:33:00.055Z,100228.88
2023-05-10T09:35:30.149Z,100227.81
2023-05-10T09:37:58.648Z,100228.94
2023-05-10T09:40:28.155Z,100218.97
2023-05-10T09:42:59.291Z,100219.97
2023-05-10T09:45:28.927Z,100209.81
2023-05-10T09:47:57.092Z,100208.31
2023-05-10T09:50:25.078Z,100185.19
2023-05-10T09:52:54.716Z,100205.97
2023-05-10T09:55:24.419Z,100205.00
2023-05-10T09:58:02.152Z,100205.25
2023-05-10T10:00:29.742Z,100196.22
2023-05-10T10:03:00.847Z,100203.13
2023-05-10T10:05:34.966Z,100198.38
2023-05-10T10:08:04.567Z,100200.31
2023-05-10T10:10:33.962Z,100193.03
2023-05-10T10:13:01.525Z,100186.94
2023-05-10T10:15:28.828Z,100187.50
2023-05-10T10:17:55.997Z,100181.56
2023-05-10T10:20:25.105Z,100180.72
2023-05-10T10:22:52.415Z,100166.31
2023-05-10T10:25:22.890Z,100157.56
2023-05-10T10:27:53.011Z,100168.03
2023-05-10T10:30:42.810Z,100168.19
2023-05-10T10:33:35.137Z,100164.22
2023-05-10T10:36:04.390Z,100163.16
2023-05-10T10:38:49.921Z,100175.09
2023-05-10T10:41:36.943Z,100168.16
2023-05-10T10:44:25.722Z,100163.69
2023-05-10T10:47:24.525Z,100145.38
2023-05-10T10:49:59.454Z,100153.81
2023-05-10T10:52:36.600Z,100154.25
2023-05-10T10:55:14.312Z,100150.97
2023-05-10T10:57:41.639Z,100153.47
2023-05-10T11:00:21.444Z,100153.88
2023-05-10T11:02:52.595Z,100151.34
2023-05-10T11:05:34.603Z,100140.88
2023-05-10T11:08:08.651Z,100139.22
2023-05-10T11:10:35.674Z,100136.84
2023-05-10T11:13:07.924Z,100125.75
2023-05-10T11:15:36.921Z,100124.16
2023-05-10T11:18:21.820Z,100124.22
2023-05-10T11:21:03.759Z,100125.13
2023-05-10T11:23:41.088Z,100098.28
2023-05-10T11:26:12.322Z,100106.13
2023-05-10T11:28:46.772Z,100124.56
2023-05-10T11:31:19.016Z,100129.13
2023-05-10T11:33:48.021Z,100126.09
2023-05-10T11:36:24.634Z,100106.44
2023-05-10T11:38:51.824Z,100117.03
2023-05-10T11:41:22.921Z,100118.56
2023-05-10T11:43:57.306Z,100111.81
2023-05-10T11:46:28.414Z,100115.06
2023-05-10T11:49:02.651Z,100103.78
2023-05-10T11:51:29.952Z,100109.13
2023-05-10T11:53:58.245Z,100084.84
2023-05-10T11:56:27.408Z,100090.88
2023-05-10T11:58:59.167Z,100101.88
2023-05-10T12:01:28.473Z,100103.22
2023-05-10T12:03:59.806Z,100101.97
2023-05-10T12:06:32.840Z,100085.63
2023-05-10T12:09:00.731Z,100074.88
2023-05-10T12:11:29.408Z,100084.56
2023-05-10T12:13:57.773Z,100086.72
2023-05-10T12:16:29.298Z,100066.09
2023-05-10T12:19:01.881Z,100094.97
2023-05-10T12:21:31.788Z,100079.03
2023-05-10T12:24:08.331Z,100069.53
2023-05-10T12:26:36.411Z,100084.69
2023-05-10T12:29:17.745Z,100084.75
2023-05-10T12:31:53.125Z,100085.56
2023-05-10T12:34:28.176Z,100079.06
2023-05-10T12:36:56.016Z,100078.91
2023-05-10T12:39:23.288Z,100070.66
2023-05-10T12:41:50.491Z,100058.41
2023-05-10T12:44:18.144Z,100050.72
2023-05-10T12:46:45.181Z,100066.59
2023-05-10T12:49:12.353Z,100074.25
2023-05-10T12:51:39.348Z,100073.28
2023-05-10T12:54:06.457Z,100067.50
2023-05-10T12:56:33.577Z,100069.47
2023-05-10T12:59:00.836Z,100058.03
2023-05-10T13:01:27.939Z,100065.53
2023-05-10T13:03:55.049Z,100068.31
2023-05-10T13:06:22.123Z,100065.78
2023-05-10T13:08:49.163Z,100062.69
2023-05-10T13:11:18.078Z,100054.66
2023-05-10T13:13:46.787Z,100065.81
2023-05-10T13:16:13.887Z,100051.53
2023-05-10T13:18:41.057Z,100058.53
2023-05-10T13:21:08.671Z,100052.31
2023-05-10T13:23:35.990Z,100066.09
2023-05-10T13:26:02.994Z,100060.66
2023-05-10T13:28:30.671Z,100038.22
2023-05-10T13:30:57.865Z,100055.41
2023-05-10T13:33:25.137Z,100051.09
2023-05-10T13:35:54.373Z,100058.59
2023-05-10T13:38:22.848Z,100037.91
2023-05-10T13:40:53.661Z,100054.31
2023-05-10T13:43:21.229Z,100051.66
2023-05-10T13:45:48.491Z,100054.78
2023-05-10T13:48:15.607Z,100060.69
2023-05-10T13:50:42.580Z,100056.00
2023-05-10T13:53:09.669Z,100052.94
2023-05-10T13:55:36.965Z,100044.91
2023-05-10T13:58:03.961Z,100051.50
2023-05-10T14:00:31.221Z,100029.59
2023-05-10T14:02:58.350Z,100049.13
2023-05-10T14:05:26.489Z,100037.06
2023-05-10T14:07:54.942Z,100053.91
2023-05-10T14:10:22.066Z,100048.22
2023-05-10T14:12:49.160Z,100045.75
2023-05-10T14:15:16.722Z,100049.47
2023-05-10T14:17:44.106Z,100052.34
2023-05-10T14:20:11.931Z,100045.50
2023-05-10T14:22:38.914Z,100045.81
2023-05-10T14:25:06.183Z,100033.59
2023-05-10T14:27:33.509Z,100034.38
2023-05-10T14:30:00.596Z,100031.75
2023-05-10T14:32:28.563Z,100035.38
2023-05-10T14:34:55.760Z,100045.06
2023-05-10T14:37:22.866Z,100045.25
2023-05-10T14:39:49.972Z,100043.91
2023-05-10T14:42:16.942Z,100051.13
2023-05-10T14:44:44.040Z,100046.94
2023-05-10T14:47:12.204Z,100047.97
2023-05-10T14:49:39.654Z,100040.16
2023-05-10T14:52:06.662Z,100041.31
2023-05-10T14:54:34.641Z,100042.31
2023-05-10T14:57:01.810Z,100018.50
2023-05-10T14:59:28.906Z,100022.03
2023-05-10T15:01:56.702Z,100029.84
2023-05-10T15:04:25.103Z,100025.38
2023-05-10T15:07:00.187Z,100020.97
2023-05-10T15:09:28.805Z,100022.75
2023-05-10T15:11:56.696Z,99998.97
2023-05-10T15:14:24.213Z,100035.03
2023-05-10T15:16:51.312Z,100020.88
2023-05-10T15:19:18.435Z,100028.63
2023-05-10T15:21:45.703Z,100013.59
2023-05-10T15:24:12.866Z,100025.00
2023-05-10T15:26:39.973Z,100034.78
2023-05-10T15:29:07.404Z,100018.72
2023-05-10T15:31:37.463Z,100020.56
2023-05-10T15:34:04.643Z,100013.38
2023-05-10T15:36:33.204Z,100032.00
2023-05-10T15:39:00.336Z,100025.03
2023-05-10T15:41:27.411Z,100018.94
2023-05-10T15:43:55.239Z,100023.47
2023-05-10T15:46:22.765Z,100016.66
2023-05-10T15:48:49.939Z,100024.72
2023-05-10T15:51:18.727Z,100017.78
2023-05-10T15:54:00.472Z,99998.75
2023-05-10T15:56:32.745Z,100014.66
2023-05-10T15:58:59.896Z,100025.34
2023-05-10T16:01:27.066Z,100014.06
2023-05-10T16:03:54.197Z,100015.03
2023-05-10T16:06:21.602Z,100020.44
2023-05-10T16:08:48.802Z,100022.38
2023-05-10T16:11:16.040Z,100020.69
2023-05-10T16:13:43.083Z,100018.88
2023-05-10T16:16:10.189Z,100020.59
2023-05-10T16:18:37.477Z,100011.00
2023-05-10T16:21:04.919Z,100006.53
2023-05-10T16:23:32.281Z,100014.63
2023-05-10T16:25:59.584Z,100015.59
2023-05-10T16:28:26.684Z,100022.78
2023-05-10T16:30:53.859Z,100022.88
2023-05-10T16:33:21.266Z,100001.81
2023-05-10T16:35:48.388Z,100024.84
2023-05-10T16:38:15.587Z,100020.53
2023-05-10T16:40:42.636Z,100014.47
2023-05-10T16:43:09.632Z,100024.19
2023-05-10T16:45:36.714Z,100023.41
2023-05-10T16:48:04.074Z,100009.38
2023-05-10T16:50:31.428Z,100021.75
2023-05-10T16:52:58.858Z,100030.69
2023-05-10T16:55:26.553Z,100021.06
2023-05-10T16:57:59.749Z,100018.56
2023-05-10T17:00:27.555Z,100028.41
2023-05-10T17:02:55.128Z,100018.81
2023-05-10T17:05:23.045Z,100022.41
2023-05-10T17:07:50.689Z,100016.41
2023-05-10T17:10:18.141Z,100024.31
2023-05-10T17:12:45.790Z,100034.09
2023-05-10T17:15:13.214Z,100031.47
2023-05-10T17:17:40.573Z,100037.72
2023-05-10T17:20:08.488Z,100036.88
2023-05-10T17:22:36.094Z,100033.41
2023-05-10T17:25:04.354Z,100040.44
2023-05-10T17:27:32.247Z,100031.56
2023-05-10T17:29:59.622Z,100035.03
2023-05-10T17:32:27.213Z,100028.94
2023-05-10T17:34:54.453Z,100032.44
2023-05-10T17:37:21.636Z,100050.97
2023-05-10T17:39:48.711Z,100029.03
2023-05-10T17:42:18.465Z,100035.16
2023-05-10T17:44:45.585Z,100052.78
2023-05-10T17:47:12.660Z,100058.06
2023-05-10T17:49:40.091Z,100050.06
2023-05-10T17:52:07.535Z,100054.53
2023-05-10T17:54:34.916Z,100057.16
2023-05-10T17:57:02.188Z,100061.66
2023-05-10T17:59:29.530Z,100045.03
2023-05-10T18:01:56.646Z,100058.34
2023-05-10T18:04:23.821Z,100049.50
2023-05-10T18:06:50.817Z,100060.97
2023-05-10T18:09:18.297Z,100060.06
2023-05-10T18:11:45.430Z,100054.81
2023-05-10T18:14:12.753Z,100054.81
2023-05-10T18:16:39.809Z,100057.47
2023-05-10T18:19:06.971Z,100065.44
2023-05-10T18:21:34.389Z,100045.13
2023-05-10T18:24:01.894Z,100038.13
2023-05-10T18:26:29.381Z,100049.59
2023-05-10T18:28:57.326Z,100056.63
2023-05-10T18:31:25.719Z,100032.06
2023-05-10T18:33:52.879Z,100054.09
2023-05-10T18:36:20.080Z,100043.59
2023-05-10T18:38:47.109Z,100054.16
2023-05-10T18:41:14.730Z,100042.78
2023-05-10T18:43:43.095Z,100057.78
2023-05-10T18:46:10.242Z,100061.34
2023-05-10T18:48:37.587Z,100062.25
2023-05-10T18:51:05.122Z,100038.53
2023-05-10T18:53:32.729Z,100054.34
2023-05-10T18:56:00.331Z,100038.63
2023-05-10T18:58:28.550Z,100063.28
2023-05-10T19:00:56.053Z,100058.94
2023-05-10T19:03:23.146Z,100044.00
2023-05-10T19:05:50.454Z,100058.13
2023-05-10T19:08:18.166Z,100068.69
2023-05-10T19:10:46.028Z,100066.94
2023-05-10T19:13:15.065Z,100064.34
2023-05-10T19:15:42.308Z,100046.81
2023-05-10T19:18:09.729Z,100069.69
2023-05-10T19:20:38.168Z,100066.16
2023-05-10T19:23:10.061Z,100071.41
2023-05-10T19:25:39.414Z,100073.19
2023-05-10T19:28:06.562Z,100053.78
2023-05-10T19:30:33.567Z,100047.72
2023-05-10T19:33:04.500Z,100064.44
2023-05-10T19:35:31.486Z,100067.94
2023-05-10T19:37:58.670Z,100068.00
2023-05-10T19:40:25.762Z,100060.00
2023-05-10T19:42:54.637Z,100060.06
2023-05-10T19:45:21.630Z,100068.84
2023-05-10T19:47:49.013Z,100057.47
2023-05-10T19:50:19.238Z,100076.81
2023-05-10T19:52:46.784Z,100070.66
2023-05-10T19:55:15.917Z,100069.75
2023-05-10T19:57:43.141Z,100065.44
2023-05-10T20:00:10.801Z,100069.81
2023-05-10T20:02:40.964Z,100065.44
2023-05-10T20:05:08.458Z,100076.88
2023-05-10T20:07:37.240Z,100076.03
2023-05-10T20:10:04.436Z,100074.28
2023-05-10T20:12:31.676Z,100068.13
2023-05-10T20:14:58.863Z,100072.53
2023-05-10T20:17:26.039Z,100061.97
2023-05-10T20:19:53.156Z,100064.63
2023-05-10T20:22:20.168Z,100070.81
2023-05-10T20:24:47.694Z,100051.50
2023-05-10T20:27:14.945Z,100071.75
2023-05-10T20:29:42.009Z,100062.09
2023-05-10T20:32:09.026Z,100072.69
2023-05-10T20:34:36.070Z,100064.81
2023-05-10T20:37:03.153Z,100053.41
2023-05-10T20:39:30.242Z,100075.44
2023-05-10T20:41:57.286Z,100070.19
2023-05-10T20:44:24.357Z,100066.69
2023-05-10T20:46:51.439Z,100064.03
2023-05-10T20:49:19.793Z,100072.81
2023-05-10T20:51:46.929Z,100064.94
2023-05-10T20:54:14.879Z,100063.13
2023-05-10T20:56:41.894Z,100068.38
2023-05-10T20:59:09.073Z,100072.75
2023-05-10T21:01:36.143Z,100061.31
2023-05-10T21:04:03.901Z,100063.06
2023-05-10T21:06:32.096Z,100073.66
2023-05-10T21:08:59.286Z,100068.41
2023-05-10T21:11:26.398Z,100070.22
2023-05-10T21:13:53.424Z,100075.56
2023-05-10T21:16:20.745Z,100061.50
2023-05-10T21:18:47.885Z,100064.13
2023-05-10T21:21:14.856Z,100070.31
2023-05-10T21:23:41.867Z,100075.56
2023-05-10T21:26:08.886Z,100063.19
2023-05-10T21:28:36.944Z,100068.47
2023-05-10T21:31:05.378Z,100071.97
2023-05-10T21:33:32.353Z,100033.31
2023-05-10T21:35:59.438Z,100059.69
2023-05-10T21:38:28.242Z,100066.69
2023-05-10T21:40:55.591Z,100070.19
2023-05-10T21:43:22.651Z,100066.63
2023-05-10T21:45:50.463Z,100057.84
2023-05-10T21:48:17.531Z,100060.50
2023-05-10T21:50:44.611Z,100063.13
2023-05-10T21:53:11.923Z,100058.75
2023-05-10T21:55:39.164Z,100049.94
2023-05-10T21:58:06.343Z,100046.38
2023-05-10T22:00:34.276Z,100063.09
2023-05-10T22:03:02.024Z,100068.38
2023-05-10T22:05:29.377Z,100064.88
2023-05-10T22:07:56.492Z,100069.28
2023-05-10T22:10:23.493Z,100063.19
2023-05-10T22:12:50.775Z,100049.16
2023-05-10T22:15:17.859Z,100066.78
2023-05-10T22:17:45.003Z,100072.06
2023-05-10T22:20:12.186Z,100060.59
2023-05-10T22:22:39.307Z,100058.84
2023-05-10T22:25:07.744Z,100072.06
2023-05-10T22:27:35.238Z,100060.63
2023-05-10T22:30:03.191Z,100070.31
2023-05-10T22:32:35.717Z,100060.59
2023-05-10T22:35:03.441Z,100049.22
2023-05-10T22:37:32.624Z,100052.69
2023-05-10T22:39:59.710Z,100055.34
2023-05-10T22:42:26.851Z,100057.09
2023-05-10T22:44:53.966Z,100057.09
2023-05-10T22:47:21.044Z,100043.03
2023-05-10T22:49:48.587Z,100057.06
2023-05-10T22:52:15.698Z,100057.06
2023-05-10T22:54:44.401Z,100049.16
2023-05-10T22:57:11.647Z,100057.94
2023-05-10T22:59:38.717Z,100022.72
2023-05-10T23:02:06.177Z,100055.25
2023-05-10T23:04:33.341Z,100037.66
2023-05-10T23:07:00.445Z,100050.84
2023-05-10T23:09:27.420Z,100042.03
2023-05-10T23:11:54.439Z,100059.69
2023-05-10T23:14:21.500Z,100057.94
2023-05-10T23:16:48.597Z,100060.63
2023-05-10T23:19:15.804Z,100029.91
2023-05-10T23:21:43.079Z,100046.59
2023-05-10T23:24:10.056Z,100054.56
2023-05-10T23:26:37.086Z,100043.16
2023-05-10T23:29:04.096Z,100061.63
2023-05-10T23:31:31.455Z,100063.38
2023-05-10T23:33:58.604Z,100054.59
2023-05-10T23:36:25.952Z,100061.63
2023-05-10T23:38:53.022Z,100061.66
2023-05-10T23:41:20.155Z,100049.34
2023-05-10T23:43:47.250Z,100056.41
2023-05-10T23:46:14.309Z,100057.28
2023-05-10T23:48:41.559Z,100066.94
2023-05-10T23:51:08.658Z,100047.56
2023-05-10T23:53:35.670Z,100064.28
2023-05-10T23:56:02.759Z,100059.91
2023-05-10T23:58:29.786Z,100026.50
